sensor_id;sensor_type;location;lat;lon;timestamp;P1;durP1;ratioP1;P2;durP2;ratioP2
14748;SDS011;7466;53.574;9.976;2023-06-26T00:01:57;11.98;;;11.02;;
14748;SDS011;7466;53.574;9.976;2023-06-26T00:04:24;11.18;;;10.43;;
14748;SDS011;7466;53.574;9.976;2023-06-26T00:06:51;11.88;;;10.98;;
14748;SDS011;7466;53.574;9.976;2023-06-26T00:09:18;11.82;;;10.88;;
14748;SDS011;7466;53.574;9.976;2023-06-26T00:11:44;11.35;;;10.65;;
14748;SDS011;7466;53.574;9.976;2023-06-26T00:14:11;11.35;;;10.43;;
14748;SDS011;7466;53.574;9.976;2023-06-26T00:16:39;12.20;;;11.30;;
14748;SDS011;7466;53.574;9.976;2023-06-26T00:19:08;11.60;;;10.88;;
14748;SDS011;7466;53.574;9.976;2023-06-26T00:21:35;11.70;;;10.60;;
14748;SDS011;7466;53.574;9.976;2023-06-26T00:24:02;11.70;;;10.82;;
14748;SDS011;7466;53.574;9.976;2023-06-26T00:26:29;11.80;;;10.77;;
14748;SDS011;7466;53.574;9.976;2023-06-26T00:28:55;11.63;;;10.63;;
14748;SDS011;7466;53.574;9.976;2023-06-26T00:31:22;11.68;;;10.98;;
14748;SDS011;7466;53.574;9.976;2023-06-26T00:33:50;12.13;;;11.15;;
14748;SDS011;7466;53.574;9.976;2023-06-26T00:36:17;11.57;;;10.77;;
14748;SDS011;7466;53.574;9.976;2023-06-26T00:38:44;11.77;;;10.98;;
14748;SDS011;7466;53.574;9.976;2023-06-26T00:41:11;11.57;;;10.88;;
14748;SDS011;7466;53.574;9.976;2023-06-26T00:43:39;12.75;;;11.80;;
14748;SDS011;7466;53.574;9.976;2023-06-26T00:46:08;12.35;;;11.55;;
14748;SDS011;7466;53.574;9.976;2023-06-26T00:48:36;12.52;;;11.63;;
14748;SDS011;7466;53.574;9.976;2023-06-26T00:51:05;12.10;;;11.20;;
14748;SDS011;7466;53.574;9.976;2023-06-26T00:53:32;12.70;;;11.55;;
14748;SDS011;7466;53.574;9.976;2023-06-26T00:56:00;12.07;;;11.27;;
14748;SDS011;7466;53.574;9.976;2023-06-26T00:58:28;13.07;;;12.07;;
14748;SDS011;7466;53.574;9.976;2023-06-26T01:00:55;13.23;;;11.60;;
14748;SDS011;7466;53.574;9.976;2023-06-26T01:03:22;12.10;;;11.30;;
14748;SDS011;7466;53.574;9.976;2023-06-26T01:05:50;13.13;;;11.60;;
14748;SDS011;7466;53.574;9.976;2023-06-26T01:08:21;12.95;;;11.95;;
14748;SDS011;7466;53.574;9.976;2023-06-26T01:10:48;13.20;;;12.10;;
14748;SDS011;7466;53.574;9.976;2023-06-26T01:13:18;13.25;;;12.15;;
14748;SDS011;7466;53.574;9.976;2023-06-26T01:15:46;12.47;;;11.37;;
14748;SDS011;7466;53.574;9.976;2023-06-26T01:18:13;13.65;;;12.65;;
14748;SDS011;7466;53.574;9.976;2023-06-26T01:20:41;13.60;;;12.30;;
14748;SDS011;7466;53.574;9.976;2023-06-26T01:23:12;12.80;;;12.00;;
14748;SDS011;7466;53.574;9.976;2023-06-26T01:25:51;13.53;;;12.53;;
14748;SDS011;7466;53.574;9.976;2023-06-26T01:28:28;12.50;;;11.60;;
14748;SDS011;7466;53.574;9.976;2023-06-26T01:30:56;13.30;;;12.30;;
14748;SDS011;7466;53.574;9.976;2023-06-26T01:33:23;12.77;;;11.67;;
14748;SDS011;7466;53.574;9.976;2023-06-26T01:35:50;13.43;;;12.43;;
14748;SDS011;7466;53.574;9.976;2023-06-26T01:38:17;12.47;;;11.53;;
14748;SDS011;7466;53.574;9.976;2023-06-26T01:40:46;13.17;;;11.97;;
14748;SDS011;7466;53.574;9.976;2023-06-26T01:43:15;14.03;;;12.93;;
14748;SDS011;7466;53.574;9.976;2023-06-26T01:45:50;13.70;;;12.63;;
14748;SDS011;7466;53.574;9.976;2023-06-26T01:48:21;13.27;;;12.17;;
14748;SDS011;7466;53.574;9.976;2023-06-26T01:50:52;14.20;;;13.10;;
14748;SDS011;7466;53.574;9.976;2023-06-26T01:53:21;13.27;;;12.37;;
14748;SDS011;7466;53.574;9.976;2023-06-26T01:55:53;13.03;;;12.03;;
14748;SDS011;7466;53.574;9.976;2023-06-26T01:58:24;14.00;;;12.80;;
14748;SDS011;7466;53.574;9.976;2023-06-26T02:00:53;14.27;;;13.20;;
14748;SDS011;7466;53.574;9.976;2023-06-26T02:03:20;13.40;;;12.43;;
14748;SDS011;7466;53.574;9.976;2023-06-26T02:05:49;13.20;;;12.27;;
14748;SDS011;7466;53.574;9.976;2023-06-26T02:08:16;12.57;;;11.73;;
14748;SDS011;7466;53.574;9.976;2023-06-26T02:10:43;13.43;;;12.43;;
14748;SDS011;7466;53.574;9.976;2023-06-26T02:13:09;12.97;;;11.87;;
14748;SDS011;7466;53.574;9.976;2023-06-26T02:15:36;13.33;;;12.30;;
14748;SDS011;7466;53.574;9.976;2023-06-26T02:18:04;13.50;;;12.20;;
14748;SDS011;7466;53.574;9.976;2023-06-26T02:20:31;13.17;;;12.10;;
14748;SDS011;7466;53.574;9.976;2023-06-26T02:22:58;13.47;;;12.37;;
14748;SDS011;7466;53.574;9.976;2023-06-26T02:25:25;13.73;;;12.77;;
14748;SDS011;7466;53.574;9.976;2023-06-26T02:27:59;14.00;;;12.60;;
14748;SDS011;7466;53.574;9.976;2023-06-26T02:30:26;12.97;;;11.83;;
14748;SDS011;7466;53.574;9.976;2023-06-26T02:32:52;13.07;;;12.07;;
14748;SDS011;7466;53.574;9.976;2023-06-26T02:35:21;12.50;;;11.70;;
14748;SDS011;7466;53.574;9.976;2023-06-26T02:37:48;13.57;;;12.47;;
14748;SDS011;7466;53.574;9.976;2023-06-26T02:40:17;12.97;;;11.97;;
14748;SDS011;7466;53.574;9.976;2023-06-26T02:42:44;12.63;;;11.70;;
14748;SDS011;7466;53.574;9.976;2023-06-26T02:45:10;12.67;;;11.73;;
14748;SDS011;7466;53.574;9.976;2023-06-26T02:47:37;12.63;;;11.83;;
14748;SDS011;7466;53.574;9.976;2023-06-26T02:50:05;12.67;;;11.77;;
14748;SDS011;7466;53.574;9.976;2023-06-26T02:52:34;12.20;;;11.40;;
14748;SDS011;7466;53.574;9.976;2023-06-26T02:55:00;11.90;;;10.90;;
14748;SDS011;7466;53.574;9.976;2023-06-26T02:57:28;12.57;;;11.53;;
14748;SDS011;7466;53.574;9.976;2023-06-26T02:59:55;12.63;;;11.53;;
14748;SDS011;7466;53.574;9.976;2023-06-26T03:02:21;12.97;;;11.97;;
14748;SDS011;7466;53.574;9.976;2023-06-26T03:04:48;12.67;;;11.53;;
14748;SDS011;7466;53.574;9.976;2023-06-26T03:07:15;12.17;;;11.40;;
14748;SDS011;7466;53.574;9.976;2023-06-26T03:09:43;12.23;;;11.27;;
14748;SDS011;7466;53.574;9.976;2023-06-26T03:12:10;10.93;;;10.13;;
14748;SDS011;7466;53.574;9.976;2023-06-26T03:14:37;12.40;;;11.57;;
14748;SDS011;7466;53.574;9.976;2023-06-26T03:17:04;12.30;;;11.40;;
14748;SDS011;7466;53.574;9.976;2023-06-26T03:19:32;12.53;;;11.50;;
14748;SDS011;7466;53.574;9.976;2023-06-26T03:21:59;12.23;;;11.30;;
14748;SDS011;7466;53.574;9.976;2023-06-26T03:24:25;12.17;;;11.37;;
14748;SDS011;7466;53.574;9.976;2023-06-26T03:26:53;12.73;;;11.43;;
14748;SDS011;7466;53.574;9.976;2023-06-26T03:29:20;11.87;;;11.07;;
14748;SDS011;7466;53.574;9.976;2023-06-26T03:31:47;11.57;;;10.67;;
14748;SDS011;7466;53.574;9.976;2023-06-26T03:34:14;12.20;;;11.23;;
14748;SDS011;7466;53.574;9.976;2023-06-26T03:36:41;12.17;;;11.17;;
14748;SDS011;7466;53.574;9.976;2023-06-26T03:39:07;12.03;;;11.13;;
14748;SDS011;7466;53.574;9.976;2023-06-26T03:41:34;11.73;;;10.97;;
14748;SDS011;7466;53.574;9.976;2023-06-26T03:44:02;11.57;;;10.80;;
14748;SDS011;7466;53.574;9.976;2023-06-26T03:46:29;12.33;;;11.17;;
14748;SDS011;7466;53.574;9.976;2023-06-26T03:48:56;12.00;;;10.90;;
14748;SDS011;7466;53.574;9.976;2023-06-26T03:51:23;12.83;;;11.77;;
14748;SDS011;7466;53.574;9.976;2023-06-26T03:53:50;12.77;;;11.67;;
14748;SDS011;7466;53.574;9.976;2023-06-26T03:56:16;12.20;;;11.23;;
14748;SDS011;7466;53.574;9.976;2023-06-26T03:58:43;12.37;;;11.47;;
14748;SDS011;7466;53.574;9.976;2023-06-26T04:01:11;12.63;;;11.53;;
14748;SDS011;7466;53.574;9.976;2023-06-26T04:03:38;14.20;;;12.50;;
14748;SDS011;7466;53.574;9.976;2023-06-26T04:06:05;12.50;;;11.53;;
14748;SDS011;7466;53.574;9.976;2023-06-26T04:08:32;12.60;;;11.70;;
14748;SDS011;7466;53.574;9.976;2023-06-26T04:10:58;12.60;;;11.67;;
14748;SDS011;7466;53.574;9.976;2023-06-26T04:13:25;13.17;;;12.03;;
14748;SDS011;7466;53.574;9.976;2023-06-26T04:15:53;12.77;;;11.47;;
14748;SDS011;7466;53.574;9.976;2023-06-26T04:18:22;12.27;;;11.27;;
14748;SDS011;7466;53.574;9.976;2023-06-26T04:21:04;12.93;;;11.93;;
14748;SDS011;7466;53.574;9.976;2023-06-26T04:23:33;11.90;;;10.90;;
14748;SDS011;7466;53.574;9.976;2023-06-26T04:26:00;12.20;;;11.40;;
14748;SDS011;7466;53.574;9.976;2023-06-26T04:28:27;12.53;;;11.20;;
14748;SDS011;7466;53.574;9.976;2023-06-26T04:30:54;11.73;;;10.93;;
14748;SDS011;7466;53.574;9.976;2023-06-26T04:33:22;12.70;;;11.60;;
14748;SDS011;7466;53.574;9.976;2023-06-26T04:35:50;11.50;;;10.60;;
14748;SDS011;7466;53.574;9.976;2023-06-26T04:38:17;12.17;;;11.17;;
14748;SDS011;7466;53.574;9.976;2023-06-26T04:40:44;15.20;;;11.50;;
14748;SDS011;7466;53.574;9.976;2023-06-26T04:43:11;12.13;;;10.90;;
14748;SDS011;7466;53.574;9.976;2023-06-26T04:45:38;11.70;;;10.90;;
14748;SDS011;7466;53.574;9.976;2023-06-26T04:48:05;14.13;;;10.77;;
14748;SDS011;7466;53.574;9.976;2023-06-26T04:50:33;11.57;;;10.40;;
14748;SDS011;7466;53.574;9.976;2023-06-26T04:53:00;11.07;;;10.23;;
14748;SDS011;7466;53.574;9.976;2023-06-26T04:55:27;11.30;;;10.50;;
14748;SDS011;7466;53.574;9.976;2023-06-26T04:57:54;11.70;;;10.73;;
14748;SDS011;7466;53.574;9.976;2023-06-26T05:00:21;11.30;;;10.27;;
14748;SDS011;7466;53.574;9.976;2023-06-26T05:02:49;10.90;;;10.07;;
14748;SDS011;7466;53.574;9.976;2023-06-26T05:05:24;14.25;;;9.85;;
14748;SDS011;7466;53.574;9.976;2023-06-26T05:07:53;10.87;;;10.00;;
14748;SDS011;7466;53.574;9.976;2023-06-26T05:10:20;11.10;;;10.20;;
14748;SDS011;7466;53.574;9.976;2023-06-26T05:12:47;11.37;;;10.37;;
14748;SDS011;7466;53.574;9.976;2023-06-26T05:15:14;11.13;;;10.27;;
14748;SDS011;7466;53.574;9.976;2023-06-26T05:17:41;10.87;;;9.97;;
14748;SDS011;7466;53.574;9.976;2023-06-26T05:20:08;10.65;;;9.68;;
14748;SDS011;7466;53.574;9.976;2023-06-26T05:22:36;10.93;;;10.00;;
14748;SDS011;7466;53.574;9.976;2023-06-26T05:25:06;11.23;;;9.25;;
14748;SDS011;7466;53.574;9.976;2023-06-26T05:27:36;11.13;;;10.13;;
14748;SDS011;7466;53.574;9.976;2023-06-26T05:30:04;11.13;;;10.07;;
14748;SDS011;7466;53.574;9.976;2023-06-26T05:32:31;11.07;;;9.85;;
14748;SDS011;7466;53.574;9.976;2023-06-26T05:35:01;10.65;;;9.55;;
14748;SDS011;7466;53.574;9.976;2023-06-26T05:37:30;11.27;;;10.07;;
14748;SDS011;7466;53.574;9.976;2023-06-26T05:39:58;10.18;;;9.35;;
14748;SDS011;7466;53.574;9.976;2023-06-26T05:42:27;10.23;;;8.98;;
14748;SDS011;7466;53.574;9.976;2023-06-26T05:44:54;10.32;;;9.05;;
14748;SDS011;7466;53.574;9.976;2023-06-26T05:47:21;11.20;;;10.10;;
14748;SDS011;7466;53.574;9.976;2023-06-26T05:49:48;11.32;;;8.98;;
14748;SDS011;7466;53.574;9.976;2023-06-26T05:52:16;9.88;;;8.80;;
14748;SDS011;7466;53.574;9.976;2023-06-26T05:54:43;9.30;;;8.57;;
14748;SDS011;7466;53.574;9.976;2023-06-26T05:57:10;10.60;;;9.50;;
14748;SDS011;7466;53.574;9.976;2023-06-26T05:59:40;9.95;;;9.13;;
14748;SDS011;7466;53.574;9.976;2023-06-26T06:02:13;9.65;;;8.65;;
14748;SDS011;7466;53.574;9.976;2023-06-26T06:04:40;10.55;;;8.90;;
14748;SDS011;7466;53.574;9.976;2023-06-26T06:07:07;10.25;;;9.18;;
14748;SDS011;7466;53.574;9.976;2023-06-26T06:09:34;10.35;;;9.30;;
14748;SDS011;7466;53.574;9.976;2023-06-26T06:12:01;9.82;;;8.77;;
14748;SDS011;7466;53.574;9.976;2023-06-26T06:14:28;9.77;;;8.80;;
14748;SDS011;7466;53.574;9.976;2023-06-26T06:16:57;10.63;;;9.07;;
14748;SDS011;7466;53.574;9.976;2023-06-26T06:19:24;9.77;;;8.88;;
14748;SDS011;7466;53.574;9.976;2023-06-26T06:21:50;9.07;;;8.30;;
14748;SDS011;7466;53.574;9.976;2023-06-26T06:24:17;9.52;;;8.65;;
14748;SDS011;7466;53.574;9.976;2023-06-26T06:26:44;9.77;;;8.80;;
14748;SDS011;7466;53.574;9.976;2023-06-26T06:29:11;10.02;;;8.73;;
14748;SDS011;7466;53.574;9.976;2023-06-26T06:31:38;11.27;;;8.43;;
14748;SDS011;7466;53.574;9.976;2023-06-26T06:34:06;8.95;;;8.35;;
14748;SDS011;7466;53.574;9.976;2023-06-26T06:36:33;9.25;;;8.43;;
14748;SDS011;7466;53.574;9.976;2023-06-26T06:39:00;8.82;;;8.13;;
14748;SDS011;7466;53.574;9.976;2023-06-26T06:41:27;8.38;;;7.78;;
14748;SDS011;7466;53.574;9.976;2023-06-26T06:43:54;9.05;;;8.23;;
14748;SDS011;7466;53.574;9.976;2023-06-26T06:46:20;8.60;;;8.00;;
14748;SDS011;7466;53.574;9.976;2023-06-26T06:48:48;12.90;;;8.55;;
14748;SDS011;7466;53.574;9.976;2023-06-26T06:51:17;8.27;;;7.60;;
14748;SDS011;7466;53.574;9.976;2023-06-26T06:53:44;8.23;;;7.70;;
14748;SDS011;7466;53.574;9.976;2023-06-26T06:56:10;8.13;;;7.53;;
14748;SDS011;7466;53.574;9.976;2023-06-26T06:58:37;11.15;;;7.97;;
14748;SDS011;7466;53.574;9.976;2023-06-26T07:01:06;7.90;;;7.32;;
14748;SDS011;7466;53.574;9.976;2023-06-26T07:03:32;8.60;;;8.10;;
14748;SDS011;7466;53.574;9.976;2023-06-26T07:05:59;7.82;;;7.07;;
14748;SDS011;7466;53.574;9.976;2023-06-26T07:08:27;9.25;;;8.45;;
14748;SDS011;7466;53.574;9.976;2023-06-26T07:10:55;8.82;;;7.93;;
14748;SDS011;7466;53.574;9.976;2023-06-26T07:13:22;9.88;;;8.93;;
14748;SDS011;7466;53.574;9.976;2023-06-26T07:15:49;8.38;;;7.60;;
14748;SDS011;7466;53.574;9.976;2023-06-26T07:18:16;9.13;;;8.30;;
14748;SDS011;7466;53.574;9.976;2023-06-26T07:20:43;8.25;;;7.60;;
14748;SDS011;7466;53.574;9.976;2023-06-26T07:23:10;8.32;;;7.55;;
14748;SDS011;7466;53.574;9.976;2023-06-26T07:25:38;8.27;;;7.57;;
14748;SDS011;7466;53.574;9.976;2023-06-26T07:28:09;8.18;;;7.57;;
14748;SDS011;7466;53.574;9.976;2023-06-26T07:30:36;8.65;;;7.88;;
14748;SDS011;7466;53.574;9.976;2023-06-26T07:33:03;8.48;;;7.78;;
14748;SDS011;7466;53.574;9.976;2023-06-26T07:35:30;8.00;;;7.40;;
14748;SDS011;7466;53.574;9.976;2023-06-26T07:37:57;8.98;;;7.72;;
14748;SDS011;7466;53.574;9.976;2023-06-26T07:40:25;8.38;;;7.63;;
14748;SDS011;7466;53.574;9.976;2023-06-26T07:42:53;8.85;;;7.97;;
14748;SDS011;7466;53.574;9.976;2023-06-26T07:45:20;8.27;;;7.60;;
14748;SDS011;7466;53.574;9.976;2023-06-26T07:47:47;8.57;;;7.78;;
14748;SDS011;7466;53.574;9.976;2023-06-26T07:50:14;8.07;;;7.28;;
14748;SDS011;7466;53.574;9.976;2023-06-26T07:52:46;8.48;;;7.68;;
14748;SDS011;7466;53.574;9.976;2023-06-26T07:55:13;8.13;;;7.30;;
14748;SDS011;7466;53.574;9.976;2023-06-26T07:57:40;7.57;;;7.05;;
14748;SDS011;7466;53.574;9.976;2023-06-26T08:00:08;8.48;;;7.85;;
14748;SDS011;7466;53.574;9.976;2023-06-26T08:02:36;8.73;;;7.55;;
14748;SDS011;7466;53.574;9.976;2023-06-26T08:05:03;8.50;;;7.90;;
14748;SDS011;7466;53.574;9.976;2023-06-26T08:07:31;9.05;;;7.57;;
14748;SDS011;7466;53.574;9.976;2023-06-26T08:09:57;8.45;;;7.75;;
14748;SDS011;7466;53.574;9.976;2023-06-26T08:12:24;8.15;;;7.30;;
14748;SDS011;7466;53.574;9.976;2023-06-26T08:14:51;7.80;;;7.28;;
14748;SDS011;7466;53.574;9.976;2023-06-26T08:17:19;8.70;;;7.88;;
14748;SDS011;7466;53.574;9.976;2023-06-26T08:19:46;8.20;;;7.60;;
14748;SDS011;7466;53.574;9.976;2023-06-26T08:22:13;9.75;;;7.20;;
14748;SDS011;7466;53.574;9.976;2023-06-26T08:24:40;8.10;;;7.28;;
14748;SDS011;7466;53.574;9.976;2023-06-26T08:27:06;7.93;;;7.22;;
14748;SDS011;7466;53.574;9.976;2023-06-26T08:29:33;8.07;;;7.38;;
14748;SDS011;7466;53.574;9.976;2023-06-26T08:32:00;8.63;;;8.00;;
14748;SDS011;7466;53.574;9.976;2023-06-26T08:34:29;7.70;;;7.05;;
14748;SDS011;7466;53.574;9.976;2023-06-26T08:36:56;8.43;;;7.57;;
14748;SDS011;7466;53.574;9.976;2023-06-26T08:39:23;8.52;;;7.40;;
14748;SDS011;7466;53.574;9.976;2023-06-26T08:41:50;9.38;;;7.55;;
14748;SDS011;7466;53.574;9.976;2023-06-26T08:44:17;10.15;;;7.07;;
14748;SDS011;7466;53.574;9.976;2023-06-26T08:46:49;7.50;;;7.07;;
14748;SDS011;7466;53.574;9.976;2023-06-26T08:49:17;7.65;;;7.07;;
14748;SDS011;7466;53.574;9.976;2023-06-26T08:51:49;7.90;;;7.30;;
14748;SDS011;7466;53.574;9.976;2023-06-26T08:54:22;8.02;;;7.25;;
14748;SDS011;7466;53.574;9.976;2023-06-26T08:56:53;8.95;;;7.72;;
14748;SDS011;7466;53.574;9.976;2023-06-26T08:59:21;9.57;;;8.50;;
14748;SDS011;7466;53.574;9.976;2023-06-26T09:01:48;8.82;;;7.93;;
14748;SDS011;7466;53.574;9.976;2023-06-26T09:04:16;8.45;;;7.85;;
14748;SDS011;7466;53.574;9.976;2023-06-26T09:06:43;10.43;;;8.43;;
14748;SDS011;7466;53.574;9.976;2023-06-26T09:09:11;10.00;;;9.10;;
14748;SDS011;7466;53.574;9.976;2023-06-26T09:11:38;9.25;;;8.65;;
14748;SDS011;7466;53.574;9.976;2023-06-26T09:14:05;10.00;;;9.20;;
14748;SDS011;7466;53.574;9.976;2023-06-26T09:16:38;11.63;;;9.10;;
14748;SDS011;7466;53.574;9.976;2023-06-26T09:19:08;11.23;;;10.23;;
14748;SDS011;7466;53.574;9.976;2023-06-26T09:21:36;10.85;;;9.93;;
14748;SDS011;7466;53.574;9.976;2023-06-26T09:24:04;11.38;;;10.57;;
14748;SDS011;7466;53.574;9.976;2023-06-26T09:26:35;11.75;;;10.65;;
14748;SDS011;7466;53.574;9.976;2023-06-26T09:29:03;11.68;;;10.77;;
14748;SDS011;7466;53.574;9.976;2023-06-26T09:31:30;11.93;;;10.75;;
14748;SDS011;7466;53.574;9.976;2023-06-26T09:33:58;11.75;;;10.63;;
14748;SDS011;7466;53.574;9.976;2023-06-26T09:36:27;11.73;;;10.55;;
14748;SDS011;7466;53.574;9.976;2023-06-26T09:38:58;11.55;;;9.80;;
14748;SDS011;7466;53.574;9.976;2023-06-26T09:41:25;10.13;;;9.10;;
14748;SDS011;7466;53.574;9.976;2023-06-26T09:43:57;14.40;;;10.48;;
14748;SDS011;7466;53.574;9.976;2023-06-26T09:46:27;12.15;;;10.00;;
14748;SDS011;7466;53.574;9.976;2023-06-26T09:48:58;10.68;;;9.73;;
14748;SDS011;7466;53.574;9.976;2023-06-26T09:51:29;12.07;;;10.88;;
14748;SDS011;7466;53.574;9.976;2023-06-26T09:53:56;12.13;;;11.10;;
14748;SDS011;7466;53.574;9.976;2023-06-26T09:56:23;12.43;;;11.40;;
14748;SDS011;7466;53.574;9.976;2023-06-26T09:58:50;17.42;;;13.00;;
14748;SDS011;7466;53.574;9.976;2023-06-26T10:01:19;14.98;;;12.48;;
14748;SDS011;7466;53.574;9.976;2023-06-26T10:03:45;12.82;;;11.68;;
14748;SDS011;7466;53.574;9.976;2023-06-26T10:06:13;13.85;;;11.90;;
14748;SDS011;7466;53.574;9.976;2023-06-26T10:08:41;15.23;;;13.27;;
14748;SDS011;7466;53.574;9.976;2023-06-26T10:11:10;15.93;;;12.38;;
14748;SDS011;7466;53.574;9.976;2023-06-26T10:13:42;13.98;;;12.38;;
14748;SDS011;7466;53.574;9.976;2023-06-26T10:16:11;16.65;;;13.02;;
14748;SDS011;7466;53.574;9.976;2023-06-26T10:18:40;14.52;;;13.07;;
14748;SDS011;7466;53.574;9.976;2023-06-26T10:21:09;14.02;;;12.35;;
14748;SDS011;7466;53.574;9.976;2023-06-26T10:23:39;13.02;;;11.85;;
14748;SDS011;7466;53.574;9.976;2023-06-26T10:26:09;10.23;;;9.23;;
14748;SDS011;7466;53.574;9.976;2023-06-26T10:28:39;13.07;;;9.63;;
14748;SDS011;7466;53.574;9.976;2023-06-26T10:31:08;10.45;;;9.45;;
14748;SDS011;7466;53.574;9.976;2023-06-26T10:33:36;10.50;;;9.20;;
14748;SDS011;7466;53.574;9.976;2023-06-26T10:38:55;9.68;;;8.75;;
14748;SDS011;7466;53.574;9.976;2023-06-26T10:41:23;10.63;;;9.75;;
14748;SDS011;7466;53.574;9.976;2023-06-26T10:43:51;10.15;;;9.20;;
14748;SDS011;7466;53.574;9.976;2023-06-26T10:46:32;9.70;;;8.90;;
14748;SDS011;7466;53.574;9.976;2023-06-26T10:49:00;8.95;;;8.15;;
14748;SDS011;7466;53.574;9.976;2023-06-26T10:51:29;8.43;;;7.57;;
14748;SDS011;7466;53.574;9.976;2023-06-26T10:53:57;9.25;;;8.35;;
14748;SDS011;7466;53.574;9.976;2023-06-26T10:56:43;9.57;;;8.73;;
14748;SDS011;7466;53.574;9.976;2023-06-26T10:59:11;9.23;;;8.43;;
14748;SDS011;7466;53.574;9.976;2023-06-26T11:01:42;11.97;;;9.13;;
14748;SDS011;7466;53.574;9.976;2023-06-26T11:04:09;9.60;;;8.70;;
14748;SDS011;7466;53.574;9.976;2023-06-26T11:06:38;11.57;;;9.00;;
14748;SDS011;7466;53.574;9.976;2023-06-26T11:09:09;11.00;;;9.38;;
14748;SDS011;7466;53.574;9.976;2023-06-26T11:11:55;10.30;;;9.27;;
14748;SDS011;7466;53.574;9.976;2023-06-26T11:14:30;8.73;;;7.95;;
14748;SDS011;7466;53.574;9.976;2023-06-26T11:16:58;11.45;;;8.20;;
14748;SDS011;7466;53.574;9.976;2023-06-26T11:19:25;11.55;;;8.45;;
14748;SDS011;7466;53.574;9.976;2023-06-26T11:22:04;10.73;;;7.88;;
14748;SDS011;7466;53.574;9.976;2023-06-26T11:24:31;12.50;;;7.82;;
14748;SDS011;7466;53.574;9.976;2023-06-26T11:27:05;11.20;;;6.65;;
14748;SDS011;7466;53.574;9.976;2023-06-26T11:29:32;14.93;;;6.90;;
14748;SDS011;7466;53.574;9.976;2023-06-26T11:32:00;10.30;;;6.47;;
14748;SDS011;7466;53.574;9.976;2023-06-26T11:34:31;11.27;;;6.25;;
14748;SDS011;7466;53.574;9.976;2023-06-26T11:36:58;14.85;;;6.55;;
14748;SDS011;7466;53.574;9.976;2023-06-26T11:39:29;11.43;;;5.97;;
14748;SDS011;7466;53.574;9.976;2023-06-26T11:41:56;8.85;;;5.45;;
14748;SDS011;7466;53.574;9.976;2023-06-26T11:44:23;7.93;;;5.20;;
14748;SDS011;7466;53.574;9.976;2023-06-26T11:46:53;9.35;;;4.93;;
14748;SDS011;7466;53.574;9.976;2023-06-26T11:49:21;9.07;;;4.97;;
14748;SDS011;7466;53.574;9.976;2023-06-26T11:51:50;7.82;;;4.30;;
14748;SDS011;7466;53.574;9.976;2023-06-26T11:54:22;8.27;;;4.43;;
14748;SDS011;7466;53.574;9.976;2023-06-26T11:56:55;6.72;;;3.75;;
14748;SDS011;7466;53.574;9.976;2023-06-26T11:59:24;8.20;;;3.80;;
14748;SDS011;7466;53.574;9.976;2023-06-26T12:01:57;9.23;;;3.55;;
14748;SDS011;7466;53.574;9.976;2023-06-26T12:04:24;8.27;;;3.33;;
14748;SDS011;7466;53.574;9.976;2023-06-26T12:06:52;5.97;;;3.22;;
14748;SDS011;7466;53.574;9.976;2023-06-26T12:09:22;9.18;;;3.80;;
14748;SDS011;7466;53.574;9.976;2023-06-26T12:11:51;9.55;;;3.78;;
14748;SDS011;7466;53.574;9.976;2023-06-26T12:14:21;8.07;;;3.17;;
14748;SDS011;7466;53.574;9.976;2023-06-26T12:16:49;10.57;;;3.63;;
14748;SDS011;7466;53.574;9.976;2023-06-26T12:19:15;7.32;;;2.95;;
14748;SDS011;7466;53.574;9.976;2023-06-26T12:21:47;9.20;;;3.45;;
14748;SDS011;7466;53.574;9.976;2023-06-26T12:24:17;10.90;;;3.33;;
14748;SDS011;7466;53.574;9.976;2023-06-26T12:26:46;9.63;;;3.50;;
14748;SDS011;7466;53.574;9.976;2023-06-26T12:29:17;5.22;;;3.20;;
14748;SDS011;7466;53.574;9.976;2023-06-26T12:31:48;8.30;;;3.45;;
14748;SDS011;7466;53.574;9.976;2023-06-26T12:34:17;7.78;;;3.20;;
14748;SDS011;7466;53.574;9.976;2023-06-26T12:36:45;6.45;;;2.90;;
14748;SDS011;7466;53.574;9.976;2023-06-26T12:39:14;8.70;;;2.92;;
14748;SDS011;7466;53.574;9.976;2023-06-26T12:41:45;7.05;;;3.10;;
14748;SDS011;7466;53.574;9.976;2023-06-26T12:44:18;5.00;;;2.88;;
14748;SDS011;7466;53.574;9.976;2023-06-26T12:46:48;9.27;;;2.95;;
14748;SDS011;7466;53.574;9.976;2023-06-26T12:49:19;4.13;;;2.83;;
14748;SDS011;7466;53.574;9.976;2023-06-26T12:51:46;5.28;;;2.78;;
14748;SDS011;7466;53.574;9.976;2023-06-26T12:54:13;4.10;;;2.65;;
14748;SDS011;7466;53.574;9.976;2023-06-26T12:56:40;6.20;;;2.53;;
14748;SDS011;7466;53.574;9.976;2023-06-26T12:59:07;4.80;;;2.50;;
14748;SDS011;7466;53.574;9.976;2023-06-26T13:01:33;3.50;;;2.40;;
14748;SDS011;7466;53.574;9.976;2023-06-26T13:04:01;5.28;;;2.55;;
14748;SDS011;7466;53.574;9.976;2023-06-26T13:06:29;4.05;;;2.40;;
14748;SDS011;7466;53.574;9.976;2023-06-26T13:08:55;5.82;;;2.60;;
14748;SDS011;7466;53.574;9.976;2023-06-26T13:11:24;5.65;;;2.63;;
14748;SDS011;7466;53.574;9.976;2023-06-26T13:13:51;6.15;;;2.75;;
14748;SDS011;7466;53.574;9.976;2023-06-26T13:16:18;4.90;;;2.67;;
14748;SDS011;7466;53.574;9.976;2023-06-26T13:18:45;7.25;;;2.63;;
14748;SDS011;7466;53.574;9.976;2023-06-26T13:21:13;5.00;;;2.70;;
14748;SDS011;7466;53.574;9.976;2023-06-26T13:23:41;6.78;;;2.50;;
14748;SDS011;7466;53.574;9.976;2023-06-26T13:26:08;5.35;;;2.42;;
14748;SDS011;7466;53.574;9.976;2023-06-26T13:28:36;3.38;;;2.13;;
14748;SDS011;7466;53.574;9.976;2023-06-26T13:31:05;4.13;;;2.28;;
14748;SDS011;7466;53.574;9.976;2023-06-26T13:33:32;3.83;;;2.35;;
14748;SDS011;7466;53.574;9.976;2023-06-26T13:35:59;5.00;;;2.40;;
14748;SDS011;7466;53.574;9.976;2023-06-26T13:38:32;4.05;;;2.22;;
14748;SDS011;7466;53.574;9.976;2023-06-26T13:41:00;4.03;;;2.30;;
14748;SDS011;7466;53.574;9.976;2023-06-26T13:43:27;4.47;;;2.20;;
14748;SDS011;7466;53.574;9.976;2023-06-26T13:45:55;3.80;;;2.38;;
14748;SDS011;7466;53.574;9.976;2023-06-26T13:48:22;4.45;;;2.15;;
14748;SDS011;7466;53.574;9.976;2023-06-26T13:50:50;3.83;;;2.20;;
14748;SDS011;7466;53.574;9.976;2023-06-26T13:53:18;4.15;;;2.10;;
14748;SDS011;7466;53.574;9.976;2023-06-26T13:55:46;3.05;;;2.00;;
14748;SDS011;7466;53.574;9.976;2023-06-26T13:58:13;3.22;;;2.20;;
14748;SDS011;7466;53.574;9.976;2023-06-26T14:00:40;4.65;;;2.45;;
14748;SDS011;7466;53.574;9.976;2023-06-26T14:03:09;5.20;;;2.22;;
14748;SDS011;7466;53.574;9.976;2023-06-26T14:05:37;4.40;;;2.05;;
14748;SDS011;7466;53.574;9.976;2023-06-26T14:08:06;4.40;;;2.15;;
14748;SDS011;7466;53.574;9.976;2023-06-26T14:10:35;3.40;;;1.95;;
14748;SDS011;7466;53.574;9.976;2023-06-26T14:13:04;5.88;;;2.10;;
14748;SDS011;7466;53.574;9.976;2023-06-26T14:15:32;4.55;;;2.20;;
14748;SDS011;7466;53.574;9.976;2023-06-26T14:18:00;3.80;;;2.20;;
14748;SDS011;7466;53.574;9.976;2023-06-26T14:20:28;3.80;;;2.00;;
14748;SDS011;7466;53.574;9.976;2023-06-26T14:22:57;4.28;;;2.20;;
14748;SDS011;7466;53.574;9.976;2023-06-26T14:25:25;4.43;;;2.05;;
14748;SDS011;7466;53.574;9.976;2023-06-26T14:27:53;2.42;;;1.67;;
14748;SDS011;7466;53.574;9.976;2023-06-26T14:30:21;4.25;;;2.00;;
14748;SDS011;7466;53.574;9.976;2023-06-26T14:32:49;3.70;;;1.90;;
14748;SDS011;7466;53.574;9.976;2023-06-26T14:35:16;3.25;;;2.00;;
14748;SDS011;7466;53.574;9.976;2023-06-26T14:37:43;5.07;;;2.17;;
14748;SDS011;7466;53.574;9.976;2023-06-26T14:40:10;3.90;;;1.95;;
14748;SDS011;7466;53.574;9.976;2023-06-26T14:42:37;3.90;;;2.03;;
14748;SDS011;7466;53.574;9.976;2023-06-26T14:45:05;3.70;;;2.20;;
14748;SDS011;7466;53.574;9.976;2023-06-26T14:47:34;3.00;;;1.90;;
14748;SDS011;7466;53.574;9.976;2023-06-26T14:50:01;1.70;;;1.60;;
14748;SDS011;7466;53.574;9.976;2023-06-26T14:52:28;2.13;;;1.58;;
14748;SDS011;7466;53.574;9.976;2023-06-26T14:54:55;1.90;;;1.65;;
14748;SDS011;7466;53.574;9.976;2023-06-26T14:57:22;2.20;;;1.70;;